createdAt,value
2022-09-12T00:04:06.754Z,97295.00
2022-09-12T00:09:14.728Z,97289.00
2022-09-12T00:14:17.970Z,97280.00
2022-09-12T00:19:18.662Z,97278.00
2022-09-12T00:24:19.963Z,97276.00
2022-09-12T00:29:22.314Z,97276.00
2022-09-12T00:34:23.079Z,97278.00
2022-09-12T00:39:23.844Z,97264.00
2022-09-12T00:44:47.739Z,97259.00
2022-09-12T00:50:21.931Z,97262.00
2022-09-12T00:55:30.490Z,97262.00
2022-09-12T01:00:31.712Z,97255.00
2022-09-12T01:05:35.894Z,97257.00
2022-09-12T01:10:38.249Z,97253.00
2022-09-12T01:15:40.067Z,97245.00
2022-09-12T01:28:45.239Z,97242.00
2022-09-12T01:34:43.100Z,97239.00
2022-09-12T01:42:46.269Z,97227.00
2022-09-12T01:48:16.589Z,97238.00
2022-09-12T01:53:28.867Z,97232.00
2022-09-12T01:58:42.352Z,97232.00
2022-09-12T02:04:14.239Z,97231.00
2022-09-12T02:10:11.295Z,97224.00
2022-09-12T02:15:16.597Z,97211.00
2022-09-12T02:20:44.393Z,97211.00
2022-09-12T02:25:53.198Z,97214.00
2022-09-12T02:34:23.550Z,97210.00
2022-09-12T02:39:24.701Z,97203.00
2022-09-12T02:44:27.988Z,97209.00
2022-09-12T02:49:28.753Z,97209.00
2022-09-12T02:54:30.430Z,97208.00
2022-09-12T02:59:31.773Z,97209.00
2022-09-12T03:07:40.256Z,97199.00
2022-09-12T03:13:03.632Z,97196.00
2022-09-12T03:18:11.825Z,97190.00
2022-09-12T03:23:48.551Z,97187.00
2022-09-12T03:28:51.241Z,97186.00
2022-09-12T03:33:51.962Z,97196.00
2022-09-12T03:38:53.675Z,97196.00
2022-09-12T03:43:56.283Z,97199.00
2022-09-12T03:48:57.051Z,97199.00
2022-09-12T03:53:58.550Z,97192.00
2022-09-12T03:58:59.569Z,97192.00
2022-09-12T04:04:00.852Z,97193.00
2022-09-12T04:09:01.597Z,97188.00
2022-09-12T04:14:02.365Z,97199.00
2022-09-12T04:19:03.147Z,97195.00
2022-09-12T04:24:04.304Z,97192.00
2022-09-12T04:29:05.322Z,97196.00
2022-09-12T04:34:07.116Z,97192.00
2022-09-12T04:39:09.294Z,97182.00
2022-09-12T04:44:12.904Z,97185.00
2022-09-12T04:49:15.638Z,97185.00
2022-09-12T04:54:18.683Z,97179.00
2022-09-12T04:59:20.009Z,97188.00
2022-09-12T05:04:20.864Z,97179.00
2022-09-12T05:09:21.945Z,97177.00
2022-09-12T05:14:23.072Z,97177.00
2022-09-12T05:19:23.804Z,97179.00
2022-09-12T05:24:24.918Z,97183.00
2022-09-12T05:29:25.901Z,97181.00
2022-09-12T05:34:27.176Z,97185.00
2022-09-12T05:39:27.959Z,97173.00
2022-09-12T05:44:30.630Z,97171.00
2022-09-12T05:49:31.382Z,97178.00
2022-09-12T05:54:32.904Z,97182.00
2022-09-12T05:59:34.193Z,97186.00
2022-09-12T06:04:39.932Z,97196.00
2022-09-12T06:09:40.810Z,97195.00
2022-09-12T06:14:41.731Z,97196.00
2022-09-12T06:19:42.463Z,97201.00
2022-09-12T06:24:43.468Z,97202.00
2022-09-12T06:29:44.373Z,97194.00
2022-09-12T06:34:47.630Z,97203.00
2022-09-12T06:39:48.443Z,97196.00
2022-09-12T06:44:49.727Z,97203.00
2022-09-12T06:49:50.510Z,97192.00
2022-09-12T06:54:51.639Z,97198.00
2022-09-12T06:59:52.619Z,97192.00
2022-09-12T07:04:53.371Z,97203.00
2022-09-12T07:09:56.860Z,97204.00
2022-09-12T07:14:57.589Z,97203.00
2022-09-12T07:19:58.394Z,97195.00
2022-09-12T07:24:59.135Z,97196.00
2022-09-12T07:30:00.957Z,97185.00
2022-09-12T07:35:01.731Z,97182.00
2022-09-12T07:40:03.014Z,97185.00
2022-09-12T07:45:05.113Z,97187.00
2022-09-12T07:50:06.666Z,97193.00
2022-09-12T07:55:07.475Z,97183.00
2022-09-12T08:00:12.624Z,97190.00
2022-09-12T08:05:13.297Z,97192.00
2022-09-12T08:10:15.486Z,97205.00
2022-09-12T08:15:33.795Z,97199.00
2022-09-12T08:20:34.785Z,97216.00
2022-09-12T08:25:35.527Z,97208.00
2022-09-12T08:30:36.553Z,97213.00
2022-09-12T08:35:37.444Z,97213.00
2022-09-12T08:40:59.450Z,97216.00
2022-09-12T08:46:17.644Z,97224.00
2022-09-12T08:51:20.089Z,97226.00
2022-09-12T08:56:25.078Z,97225.00
2022-09-12T09:01:45.269Z,97216.00
2022-09-12T09:07:14.296Z,97214.00
2022-09-12T09:12:44.538Z,97226.00
2022-09-12T09:17:50.905Z,97216.00
2022-09-12T09:23:03.043Z,97212.00
2022-09-12T09:28:11.869Z,97213.00
2022-09-12T09:33:21.345Z,97211.00
2022-09-12T09:43:07.280Z,97205.00
2022-09-12T09:48:33.413Z,97213.00
2022-09-12T09:53:54.378Z,97192.00
2022-09-12T09:59:09.439Z,97188.00
2022-09-12T10:04:19.675Z,97187.00
2022-09-12T10:09:25.257Z,97188.00
2022-09-12T10:14:38.646Z,97188.00
2022-09-12T10:19:39.671Z,97175.00
2022-09-12T10:24:45.525Z,97173.00
2022-09-12T10:29:59.261Z,97167.00
2022-09-12T10:35:03.594Z,97156.00
2022-09-12T10:40:25.541Z,97169.00
2022-09-12T10:45:35.102Z,97174.00
2022-09-12T10:50:40.689Z,97167.00
2022-09-12T10:55:57.109Z,97159.00
2022-09-12T11:01:55.392Z,97160.00
2022-09-12T11:07:47.419Z,97159.00
2022-09-12T11:13:14.539Z,97153.00
2022-09-12T11:18:41.563Z,97154.00
2022-09-12T11:24:08.884Z,97149.00
2022-09-12T11:29:42.479Z,97145.00
2022-09-12T11:35:00.999Z,97150.00
2022-09-12T11:40:19.876Z,97148.00
2022-09-12T11:45:42.708Z,97140.00
2022-09-12T11:50:43.487Z,97132.00
2022-09-12T11:56:15.259Z,97117.00
2022-09-12T12:01:27.934Z,97115.00
2022-09-12T12:06:33.439Z,97115.00
2022-09-12T12:11:39.408Z,97126.00
2022-09-12T12:16:40.988Z,97119.00
2022-09-12T12:21:47.591Z,97117.00
2022-09-12T12:27:03.043Z,97119.00
2022-09-12T12:32:25.701Z,97113.00
2022-09-12T12:37:50.379Z,97101.00
2022-09-12T12:43:02.799Z,97098.00
2022-09-12T12:48:14.395Z,97092.00
2022-09-12T12:53:21.515Z,97085.00
2022-09-12T12:58:35.441Z,97076.00
2022-09-12T13:03:40.083Z,97064.00
2022-09-12T13:08:54.668Z,97061.00
2022-09-12T13:14:02.404Z,97053.00
2022-09-12T13:19:17.985Z,97051.00
2022-09-12T13:24:22.443Z,97028.00
2022-09-12T13:29:25.415Z,97044.00
2022-09-12T13:34:33.729Z,97029.00
2022-09-12T13:43:00.894Z,97024.00
2022-09-12T13:48:03.414Z,97013.00
2022-09-12T13:53:06.578Z,97010.00
2022-09-12T13:58:31.471Z,97014.00
2022-09-12T14:03:58.921Z,97021.00
2022-09-12T14:09:00.971Z,97006.00
2022-09-12T14:14:05.994Z,96999.00
2022-09-12T14:19:11.611Z,96991.00
2022-09-12T14:24:13.999Z,96988.00
2022-09-12T14:29:16.041Z,96981.00
2022-09-12T14:34:18.775Z,96989.00
2022-09-12T14:40:04.189Z,96990.00
2022-09-12T14:45:23.911Z,96983.00
2022-09-12T14:50:28.904Z,96973.00
2022-09-12T14:55:32.236Z,96969.00
2022-09-12T15:00:32.990Z,96965.00
2022-09-12T15:05:48.546Z,96968.00
2022-09-12T15:10:50.001Z,96966.00
2022-09-12T15:15:56.031Z,96959.00
2022-09-12T15:21:01.774Z,96949.00
2022-09-12T15:26:03.286Z,96949.00
2022-09-12T15:31:20.423Z,96944.00
2022-09-12T15:36:22.766Z,96938.00
2022-09-12T15:41:33.744Z,96927.00
2022-09-12T15:46:34.932Z,96933.00
2022-09-12T15:51:36.385Z,96942.00
2022-09-12T15:56:37.491Z,96936.00
2022-09-12T16:01:38.830Z,96927.00
2022-09-12T16:06:39.781Z,96921.00
2022-09-12T16:11:40.897Z,96918.00
2022-09-12T16:16:42.621Z,96916.00
2022-09-12T16:21:43.705Z,96909.00
2022-09-12T16:26:44.464Z,96908.00
2022-09-12T16:31:45.263Z,96912.00
2022-09-12T16:36:46.357Z,96907.00
2022-09-12T16:41:47.124Z,96906.00
2022-09-12T16:46:49.256Z,96906.00
2022-09-12T16:51:50.228Z,96904.00
2022-09-12T16:56:51.070Z,96911.00
2022-09-12T17:01:51.960Z,96897.00
2022-09-12T17:06:53.335Z,96900.00
2022-09-12T17:11:55.023Z,96907.00
2022-09-12T17:16:55.805Z,96895.00
2022-09-12T17:21:58.137Z,96901.00
2022-09-12T17:26:58.976Z,96893.00
2022-09-12T17:31:59.925Z,96900.00
2022-09-12T17:37:01.284Z,96898.00
2022-09-12T17:42:02.218Z,96886.00
2022-09-12T17:47:04.691Z,96882.00
2022-09-12T17:52:05.551Z,96876.00
2022-09-12T17:57:06.450Z,96868.00
2022-09-12T18:02:15.408Z,96882.00
2022-09-12T18:07:18.209Z,96885.00
2022-09-12T18:12:19.288Z,96882.00
2022-09-12T18:17:22.890Z,96898.00
2022-09-12T18:22:24.308Z,96895.00
2022-09-12T18:27:25.372Z,96894.00
2022-09-12T18:32:26.108Z,96896.00
2022-09-12T18:37:26.876Z,96895.00
2022-09-12T18:42:27.625Z,96894.00
2022-09-12T18:47:29.991Z,96892.00
2022-09-12T18:52:33.375Z,96897.00
2022-09-12T18:57:34.368Z,96897.00
2022-09-12T19:02:35.147Z,96893.00
2022-09-12T19:07:36.422Z,96891.00
2022-09-12T19:12:37.223Z,96888.00
2022-09-12T19:17:37.963Z,96897.00
2022-09-12T19:22:38.801Z,96906.00
2022-09-12T19:27:39.549Z,96899.00
2022-09-12T19:32:40.627Z,96877.00
2022-09-12T19:37:41.392Z,96875.00
2022-09-12T19:42:42.167Z,96862.00
2022-09-12T19:47:43.622Z,96855.00
2022-09-12T19:52:44.470Z,96861.00
2022-09-12T19:57:45.255Z,96865.00
2022-09-12T20:02:49.753Z,96857.00
2022-09-12T20:07:50.748Z,96848.00
2022-09-12T20:12:51.539Z,96843.00
2022-09-12T20:17:56.606Z,96839.00
2022-09-12T20:22:57.519Z,96840.00
2022-09-12T20:28:00.276Z,96832.00
2022-09-12T20:33:02.011Z,96822.00
2022-09-12T20:38:02.752Z,96842.00
2022-09-12T20:43:03.532Z,96825.00
2022-09-12T20:48:04.335Z,96831.00
2022-09-12T20:53:05.332Z,96820.00
2022-09-12T20:58:06.075Z,96819.00
2022-09-12T21:03:07.730Z,96824.00
2022-09-12T21:08:09.522Z,96816.00
2022-09-12T21:13:12.222Z,96823.00
2022-09-12T21:18:13.257Z,96812.00
2022-09-12T21:23:14.089Z,96818.00
2022-09-12T21:28:15.974Z,96805.00
2022-09-12T21:33:18.982Z,96805.00
2022-09-12T21:38:19.817Z,96801.00
2022-09-12T21:43:20.563Z,96801.00
2022-09-12T21:48:21.642Z,96811.00
2022-09-12T21:53:23.367Z,96813.00
2022-09-12T21:58:24.326Z,96827.00
2022-09-12T22:03:25.450Z,96816.00
2022-09-12T22:08:27.540Z,96819.00
2022-09-12T22:13:32.993Z,96806.00
2022-09-12T22:18:35.251Z,96794.00
2022-09-12T22:23:54.660Z,96788.00
2022-09-12T22:28:55.682Z,96797.00
2022-09-12T22:33:56.937Z,96789.00
2022-09-12T22:38:58.626Z,96777.00
2022-09-12T22:43:59.410Z,96773.00
2022-09-12T22:49:00.437Z,96774.00
2022-09-12T22:54:01.712Z,96785.00
2022-09-12T22:59:02.558Z,96785.00
2022-09-12T23:04:03.394Z,96787.00
2022-09-12T23:09:04.189Z,96783.00
2022-09-12T23:14:04.967Z,96784.00
2022-09-12T23:19:05.716Z,96780.00
2022-09-12T23:24:06.605Z,96787.00
2022-09-12T23:29:08.449Z,96769.00
2022-09-12T23:34:09.831Z,96765.00
2022-09-12T23:39:10.988Z,96748.00
2022-09-12T23:44:11.752Z,96764.00
2022-09-12T23:49:12.503Z,96754.00
2022-09-12T23:54:13.420Z,96742.00
2022-09-12T23:59:14.141Z,96740.00
